createdAt,value
2023-01-17T00:02:26.639Z,94.86
2023-01-17T00:07:48.518Z,94.82
2023-01-17T00:12:56.627Z,94.85
2023-01-17T00:17:59.532Z,95.08
2023-01-17T00:23:31.267Z,95.38
2023-01-17T00:28:37.669Z,95.17
2023-01-17T00:33:42.581Z,95.15
2023-01-17T00:38:45.503Z,95.16
2023-01-17T00:44:06.946Z,95.41
2023-01-17T00:49:28.630Z,95.29
2023-01-17T00:54:50.102Z,95.05
2023-01-17T01:00:11.514Z,95.44
2023-01-17T01:05:33.576Z,95.37
2023-01-17T01:10:55.377Z,95.40
2023-01-17T01:16:23.790Z,95.51
2023-01-17T01:21:45.431Z,95.72
2023-01-17T01:27:06.968Z,95.63
2023-01-17T01:32:29.266Z,95.91
2023-01-17T01:37:32.252Z,96.08
2023-01-17T01:42:35.106Z,96.19
2023-01-17T01:47:38.630Z,96.12
2023-01-17T01:52:45.890Z,96.40
2023-01-17T01:57:51.079Z,96.39
2023-01-17T02:02:53.846Z,96.42
2023-01-17T02:08:05.107Z,96.79
2023-01-17T02:13:08.699Z,96.39
2023-01-17T02:18:44.865Z,96.58
2023-01-17T02:24:30.757Z,96.85
2023-01-17T02:29:48.909Z,96.94
2023-01-17T02:34:56.745Z,96.79
2023-01-17T02:40:06.527Z,96.69
2023-01-17T02:45:20.263Z,96.84
2023-01-17T02:50:26.844Z,97.16
2023-01-17T02:56:23.798Z,97.05
2023-01-17T03:01:52.645Z,97.06
2023-01-17T03:07:02.084Z,97.01
2023-01-17T03:12:05.317Z,97.08
2023-01-17T03:17:08.091Z,96.84
2023-01-17T03:22:11.043Z,96.98
2023-01-17T03:27:13.795Z,97.08
2023-01-17T03:32:16.565Z,96.88
2023-01-17T03:37:19.509Z,96.94
2023-01-17T03:42:22.315Z,96.89
2023-01-17T03:47:25.152Z,97.00
2023-01-17T03:52:28.285Z,97.04
2023-01-17T03:57:32.398Z,97.17
2023-01-17T04:02:35.318Z,96.88
2023-01-17T04:07:39.004Z,96.57
2023-01-17T04:12:42.009Z,96.76
2023-01-17T04:17:45.147Z,96.64
2023-01-17T04:22:48.013Z,97.16
2023-01-17T04:27:50.756Z,96.80
2023-01-17T04:32:53.572Z,96.89
2023-01-17T04:37:56.388Z,96.73
2023-01-17T04:42:59.693Z,97.11
2023-01-17T04:48:06.920Z,96.50
2023-01-17T04:53:09.769Z,96.71
2023-01-17T04:58:12.678Z,96.42
2023-01-17T05:03:15.981Z,96.57
2023-01-17T05:08:18.876Z,96.17
2023-01-17T05:13:21.742Z,95.98
2023-01-17T05:18:24.837Z,95.99
2023-01-17T05:23:28.724Z,96.12
2023-01-17T05:28:31.504Z,96.19
2023-01-17T05:33:34.565Z,96.21
2023-01-17T05:38:37.321Z,96.39
2023-01-17T05:43:40.129Z,96.24
2023-01-17T05:48:42.893Z,96.20
2023-01-17T05:53:46.042Z,96.14
2023-01-17T05:58:48.810Z,96.23
2023-01-17T06:03:51.731Z,96.15
2023-01-17T06:08:54.559Z,96.13
2023-01-17T06:13:57.358Z,96.39
2023-01-17T06:19:01.966Z,96.28
2023-01-17T06:24:05.250Z,96.42
2023-01-17T06:29:08.037Z,96.63
2023-01-17T06:35:02.676Z,96.51
2023-01-17T06:40:07.230Z,96.31
2023-01-17T06:45:11.028Z,96.26
2023-01-17T06:50:14.878Z,96.12
2023-01-17T06:55:17.934Z,95.93
2023-01-17T07:00:21.395Z,95.99
2023-01-17T07:05:26.932Z,95.85
2023-01-17T07:10:29.762Z,95.95
2023-01-17T07:15:32.635Z,95.88
2023-01-17T07:20:35.571Z,95.94
2023-01-17T07:25:38.381Z,95.83
2023-01-17T07:30:41.465Z,96.16
2023-01-17T07:35:44.895Z,96.16
2023-01-17T07:40:48.888Z,96.16
2023-01-17T07:45:52.271Z,95.99
2023-01-17T07:50:56.357Z,95.96
2023-01-17T07:56:07.611Z,96.14
2023-01-17T08:01:13.942Z,96.10
2023-01-17T08:06:23.354Z,96.12
2023-01-17T08:11:26.226Z,96.30
2023-01-17T08:16:29.754Z,96.22
2023-01-17T08:21:32.925Z,96.30
2023-01-17T08:26:35.709Z,96.26
2023-01-17T08:31:38.564Z,96.38
2023-01-17T08:36:42.993Z,96.49
2023-01-17T08:41:45.937Z,96.47
2023-01-17T08:46:48.951Z,96.43
2023-01-17T08:51:52.820Z,96.19
2023-01-17T08:56:55.739Z,95.87
2023-01-17T09:01:58.921Z,96.06
2023-01-17T09:07:02.718Z,96.04
2023-01-17T09:12:06.590Z,95.94
2023-01-17T09:17:09.511Z,95.52
2023-01-17T09:22:12.393Z,95.54
2023-01-17T09:27:15.179Z,95.71
2023-01-17T09:32:18.039Z,95.60
2023-01-17T09:37:20.818Z,95.66
2023-01-17T09:42:35.321Z,95.31
2023-01-17T09:47:42.837Z,95.51
2023-01-17T09:52:45.684Z,94.97
2023-01-17T09:58:12.404Z,95.00
2023-01-17T10:03:26.599Z,94.68
2023-01-17T10:09:19.248Z,94.40
2023-01-17T10:14:51.417Z,93.52
2023-01-17T10:20:12.730Z,93.67
2023-01-17T10:25:48.251Z,93.29
2023-01-17T10:31:16.517Z,93.22
2023-01-17T10:36:25.665Z,93.65
2023-01-17T10:41:30.574Z,93.01
2023-01-17T10:46:41.785Z,93.13
2023-01-17T10:51:44.811Z,93.08
2023-01-17T10:56:48.380Z,92.86
2023-01-17T11:01:51.644Z,92.95
2023-01-17T11:07:14.710Z,92.76
2023-01-17T11:12:35.989Z,92.59
2023-01-17T11:17:46.075Z,92.19
2023-01-17T11:23:29.609Z,92.03
2023-01-17T11:28:34.873Z,91.86
2023-01-17T11:34:18.077Z,91.86
2023-01-17T11:39:28.080Z,91.78
2023-01-17T11:44:36.364Z,91.67
2023-01-17T11:49:44.271Z,91.28
2023-01-17T11:54:47.662Z,90.82
2023-01-17T11:59:53.211Z,91.01
2023-01-17T12:05:36.970Z,90.90
2023-01-17T12:11:08.477Z,89.95
2023-01-17T12:16:33.921Z,89.91
2023-01-17T12:22:22.774Z,89.16
2023-01-17T12:27:47.028Z,90.24
2023-01-17T12:33:19.278Z,89.69
2023-01-17T12:38:39.302Z,89.84
2023-01-17T12:43:43.638Z,90.10
2023-01-17T12:48:50.844Z,89.91
2023-01-17T12:54:00.191Z,89.69
2023-01-17T12:59:43.428Z,88.60
2023-01-17T13:05:38.761Z,89.01
2023-01-17T13:10:47.824Z,89.27
2023-01-17T13:16:06.979Z,89.22
2023-01-17T13:21:29.614Z,88.76
2023-01-17T13:26:51.880Z,89.28
2023-01-17T13:32:19.133Z,88.49
2023-01-17T13:38:08.450Z,88.15
2023-01-17T13:43:34.167Z,88.51
2023-01-17T13:48:45.533Z,88.76
2023-01-17T13:53:48.409Z,89.00
2023-01-17T13:59:02.724Z,88.59
2023-01-17T14:04:12.746Z,88.52
2023-01-17T14:09:17.092Z,88.63
2023-01-17T14:14:42.815Z,88.81
2023-01-17T14:19:48.224Z,88.44
2023-01-17T14:25:02.260Z,88.94
2023-01-17T14:30:15.250Z,88.85
2023-01-17T14:35:22.510Z,89.20
2023-01-17T14:40:29.561Z,89.17
2023-01-17T14:45:34.865Z,88.94
2023-01-17T14:50:39.571Z,89.11
2023-01-17T14:55:56.296Z,89.18
2023-01-17T15:01:17.760Z,89.16
2023-01-17T15:06:39.665Z,89.44
2023-01-17T15:11:42.644Z,89.34
2023-01-17T15:16:45.817Z,89.54
2023-01-17T15:21:52.205Z,89.40
2023-01-17T15:26:55.244Z,89.17
2023-01-17T15:32:00.047Z,89.19
2023-01-17T15:37:21.012Z,89.60
2023-01-17T15:42:26.855Z,89.59
2023-01-17T15:47:40.169Z,89.73
2023-01-17T15:52:58.826Z,89.63
2023-01-17T15:58:01.837Z,89.62
2023-01-17T16:03:29.433Z,89.89
2023-01-17T16:08:38.736Z,90.29
2023-01-17T16:13:43.495Z,90.21
2023-01-17T16:18:46.893Z,90.14
2023-01-17T16:23:49.915Z,90.39
2023-01-17T16:28:52.790Z,90.17
2023-01-17T16:33:56.218Z,90.32
2023-01-17T16:38:59.044Z,90.50
2023-01-17T16:44:03.507Z,90.60
2023-01-17T16:49:06.398Z,90.67
2023-01-17T16:54:09.223Z,90.57
2023-01-17T16:59:12.041Z,90.88
2023-01-17T17:04:14.946Z,90.72
2023-01-17T17:09:18.324Z,90.68
2023-01-17T17:14:21.353Z,90.71
2023-01-17T17:19:25.335Z,90.85
2023-01-17T17:24:28.437Z,90.98
2023-01-17T17:29:31.366Z,90.85
2023-01-17T17:34:36.699Z,90.99
2023-01-17T17:39:40.231Z,91.09
2023-01-17T17:44:43.021Z,90.97
2023-01-17T17:49:45.957Z,91.15
2023-01-17T17:54:49.022Z,91.32
2023-01-17T17:59:56.147Z,91.24
2023-01-17T18:04:59.004Z,91.31
2023-01-17T18:11:26.444Z,91.43
2023-01-17T18:16:37.458Z,91.44
2023-01-17T18:21:41.854Z,91.34
2023-01-17T18:26:47.209Z,91.35
2023-01-17T18:31:50.818Z,91.52
2023-01-17T18:36:53.613Z,91.35
2023-01-17T18:41:56.620Z,91.32
2023-01-17T18:47:04.419Z,91.67
2023-01-17T18:52:09.414Z,91.89
2023-01-17T18:57:13.208Z,91.81
2023-01-17T19:02:17.900Z,91.86
2023-01-17T19:07:21.835Z,91.78
2023-01-17T19:12:25.161Z,92.10
2023-01-17T19:17:27.925Z,92.02
2023-01-17T19:22:30.828Z,92.37
2023-01-17T19:27:33.805Z,92.26
2023-01-17T19:32:36.676Z,92.35
2023-01-17T19:37:43.761Z,92.74
2023-01-17T19:42:46.866Z,92.52
2023-01-17T19:47:49.720Z,92.47
2023-01-17T19:52:53.221Z,92.54
2023-01-17T19:57:56.333Z,92.63
2023-01-17T20:02:59.470Z,92.63
2023-01-17T20:08:02.516Z,92.67
2023-01-17T20:13:05.360Z,92.50
2023-01-17T20:18:08.193Z,92.58
2023-01-17T20:23:11.023Z,92.48
2023-01-17T20:28:14.237Z,92.57
2023-01-17T20:33:18.602Z,92.95
2023-01-17T20:38:21.485Z,92.71
2023-01-17T20:43:24.936Z,92.89
2023-01-17T20:48:27.876Z,93.24
2023-01-17T20:53:35.208Z,92.94
2023-01-17T20:58:41.321Z,92.96
2023-01-17T21:03:44.139Z,93.04
2023-01-17T21:08:47.412Z,93.09
2023-01-17T21:13:51.368Z,93.02
2023-01-17T21:18:54.207Z,93.06
2023-01-17T21:23:58.885Z,93.07
2023-01-17T21:29:02.086Z,93.12
2023-01-17T21:34:07.194Z,92.88
2023-01-17T21:39:16.041Z,93.13
2023-01-17T21:44:21.230Z,93.17
2023-01-17T21:49:24.089Z,93.30
2023-01-17T21:54:47.078Z,93.38
2023-01-17T21:59:50.204Z,93.31
2023-01-17T22:04:54.744Z,93.10
2023-01-17T22:09:57.586Z,93.27
2023-01-17T22:15:00.406Z,93.39
2023-01-17T22:20:03.546Z,93.47
2023-01-17T22:25:06.663Z,93.50
2023-01-17T22:30:13.079Z,93.31
2023-01-17T22:35:16.169Z,93.32
2023-01-17T22:40:19.205Z,93.67
2023-01-17T22:45:22.066Z,93.72
2023-01-17T22:50:24.843Z,93.57
2023-01-17T22:55:27.977Z,93.64
2023-01-17T23:00:31.588Z,93.90
2023-01-17T23:05:34.467Z,93.69
2023-01-17T23:10:56.089Z,93.64
2023-01-17T23:16:23.775Z,93.62
2023-01-17T23:21:46.563Z,94.05
2023-01-17T23:27:09.289Z,93.91
2023-01-17T23:32:12.115Z,93.95
2023-01-17T23:37:15.198Z,94.04
2023-01-17T23:42:41.017Z,93.92
2023-01-17T23:47:45.048Z,94.22
2023-01-17T23:52:47.896Z,94.17
2023-01-17T23:57:51.857Z,94.09
